sensor_id;sensor_type;location;lat;lon;timestamp;pressure;altitude;pressure_sealevel;temperature;humidity
34921;BME280;21128;50.016;20.002;2023-04-09T00:00:15;99517.93;;;4.42;100.00
34921;BME280;21128;50.016;20.002;2023-04-09T00:03:02;99529.27;;;4.41;100.00
34921;BME280;21128;50.016;20.002;2023-04-09T00:05:29;99522.39;;;4.40;100.00
34921;BME280;21128;50.016;20.002;2023-04-09T00:07:56;99531.13;;;4.39;100.00
34921;BME280;21128;50.016;20.002;2023-04-09T00:10:23;99526.02;;;4.37;100.00
34921;BME280;21128;50.016;20.002;2023-04-09T00:12:50;99536.42;;;4.37;100.00
34921;BME280;21128;50.016;20.002;2023-04-09T00:15:17;99536.48;;;4.36;100.00
34921;BME280;21128;50.016;20.002;2023-04-09T00:17:44;99534.81;;;4.35;100.00
34921;BME280;21128;50.016;20.002;2023-04-09T00:20:11;99528.67;;;4.36;100.00
34921;BME280;21128;50.016;20.002;2023-04-09T00:22:38;99528.02;;;4.32;100.00
34921;BME280;21128;50.016;20.002;2023-04-09T00:25:06;99529.94;;;4.29;100.00
34921;BME280;21128;50.016;20.002;2023-04-09T00:27:33;99530.13;;;4.26;100.00
34921;BME280;21128;50.016;20.002;2023-04-09T00:30:00;99528.63;;;4.21;100.00
34921;BME280;21128;50.016;20.002;2023-04-09T00:32:26;99538.20;;;4.21;100.00
34921;BME280;21128;50.016;20.002;2023-04-09T00:34:53;99534.16;;;4.15;100.00
34921;BME280;21128;50.016;20.002;2023-04-09T00:37:21;99521.16;;;4.15;100.00
34921;BME280;21128;50.016;20.002;2023-04-09T00:39:48;99528.13;;;4.15;100.00
34921;BME280;21128;50.016;20.002;2023-04-09T00:42:15;99524.59;;;4.16;100.00
34921;BME280;21128;50.016;20.002;2023-04-09T00:44:42;99527.80;;;4.21;100.00
34921;BME280;21128;50.016;20.002;2023-04-09T00:47:09;99525.94;;;4.23;100.00
34921;BME280;21128;50.016;20.002;2023-04-09T00:49:36;99525.84;;;4.24;100.00
34921;BME280;21128;50.016;20.002;2023-04-09T00:52:03;99525.01;;;4.24;100.00
34921;BME280;21128;50.016;20.002;2023-04-09T00:54:31;99518.13;;;4.23;100.00
34921;BME280;21128;50.016;20.002;2023-04-09T00:56:58;99523.43;;;4.21;100.00
34921;BME280;21128;50.016;20.002;2023-04-09T00:59:25;99514.84;;;4.19;100.00
34921;BME280;21128;50.016;20.002;2023-04-09T01:01:52;99517.45;;;4.19;100.00
34921;BME280;21128;50.016;20.002;2023-04-09T01:04:20;99515.69;;;4.20;100.00
34921;BME280;21128;50.016;20.002;2023-04-09T01:06:53;99516.55;;;4.20;100.00
34921;BME280;21128;50.016;20.002;2023-04-09T01:10:04;99521.06;;;4.17;100.00
34921;BME280;21128;50.016;20.002;2023-04-09T01:15:38;99511.83;;;4.11;100.00
34921;BME280;21128;50.016;20.002;2023-04-09T01:18:14;99521.48;;;4.09;100.00
34921;BME280;21128;50.016;20.002;2023-04-09T01:20:55;99518.23;;;4.06;100.00
34921;BME280;21128;50.016;20.002;2023-04-09T01:29:16;99513.27;;;4.01;100.00
34921;BME280;21128;50.016;20.002;2023-04-09T01:31:47;99513.36;;;4.00;100.00
34921;BME280;21128;50.016;20.002;2023-04-09T01:34:15;99507.41;;;3.98;100.00
34921;BME280;21128;50.016;20.002;2023-04-09T01:36:54;99508.34;;;3.97;100.00
34921;BME280;21128;50.016;20.002;2023-04-09T01:39:23;99508.39;;;3.95;100.00
34921;BME280;21128;50.016;20.002;2023-04-09T01:41:50;99508.48;;;3.93;100.00
34921;BME280;21128;50.016;20.002;2023-04-09T01:44:19;99510.25;;;3.93;100.00
34921;BME280;21128;50.016;20.002;2023-04-09T01:46:47;99521.58;;;3.92;100.00
34921;BME280;21128;50.016;20.002;2023-04-09T01:49:16;99520.73;;;3.91;100.00
34921;BME280;21128;50.016;20.002;2023-04-09T01:51:43;99517.39;;;3.89;100.00
34921;BME280;21128;50.016;20.002;2023-04-09T01:54:11;99514.88;;;3.88;100.00
34921;BME280;21128;50.016;20.002;2023-04-09T01:56:43;99522.83;;;3.85;100.00
34921;BME280;21128;50.016;20.002;2023-04-09T01:59:11;99521.98;;;3.84;100.00
34921;BME280;21128;50.016;20.002;2023-04-09T02:01:53;99526.27;;;3.85;100.00
34921;BME280;21128;50.016;20.002;2023-04-09T02:04:25;99516.70;;;3.86;100.00
34921;BME280;21128;50.016;20.002;2023-04-09T02:09:38;99525.34;;;3.86;100.00
34921;BME280;21128;50.016;20.002;2023-04-09T02:12:10;99525.42;;;3.85;100.00
34921;BME280;21128;50.016;20.002;2023-04-09T02:14:39;99519.30;;;3.86;100.00
34921;BME280;21128;50.016;20.002;2023-04-09T02:17:07;99537.50;;;3.86;100.00
34921;BME280;21128;50.016;20.002;2023-04-09T02:19:41;99530.63;;;3.85;100.00
34921;BME280;21128;50.016;20.002;2023-04-09T02:22:09;99537.50;;;3.86;100.00
34921;BME280;21128;50.016;20.002;2023-04-09T02:24:37;99534.15;;;3.84;100.00
34921;BME280;21128;50.016;20.002;2023-04-09T02:27:06;99535.08;;;3.83;100.00
34921;BME280;21128;50.016;20.002;2023-04-09T02:29:33;99537.67;;;3.83;100.00
34921;BME280;21128;50.016;20.002;2023-04-09T02:32:00;99539.44;;;3.82;100.00
34921;BME280;21128;50.016;20.002;2023-04-09T02:34:27;99528.95;;;3.84;100.00
34921;BME280;21128;50.016;20.002;2023-04-09T02:36:54;99528.29;;;3.80;100.00
34921;BME280;21128;50.016;20.002;2023-04-09T02:39:21;99529.22;;;3.79;100.00
34921;BME280;21128;50.016;20.002;2023-04-09T02:41:48;99523.18;;;3.79;100.00
34921;BME280;21128;50.016;20.002;2023-04-09T02:44:16;99522.40;;;3.77;100.00
34921;BME280;21128;50.016;20.002;2023-04-09T02:46:43;99518.13;;;3.76;100.00
34921;BME280;21128;50.016;20.002;2023-04-09T02:49:10;99522.48;;;3.75;100.00
34921;BME280;21128;50.016;20.002;2023-04-09T02:51:37;99527.59;;;3.77;100.00
34921;BME280;21128;50.016;20.002;2023-04-09T02:54:04;99528.44;;;3.77;100.00
34921;BME280;21128;50.016;20.002;2023-04-09T02:56:31;99524.08;;;3.78;100.00
34921;BME280;21128;50.016;20.002;2023-04-09T02:58:58;99530.11;;;3.78;100.00
34921;BME280;21128;50.016;20.002;2023-04-09T03:01:25;99528.37;;;3.79;100.00
34921;BME280;21128;50.016;20.002;2023-04-09T03:03:52;99523.09;;;3.80;100.00
34921;BME280;21128;50.016;20.002;2023-04-09T03:06:19;99529.13;;;3.81;100.00
34921;BME280;21128;50.016;20.002;2023-04-09T03:08:46;99529.13;;;3.81;100.00
34921;BME280;21128;50.016;20.002;2023-04-09T03:11:13;99522.83;;;3.85;100.00
34921;BME280;21128;50.016;20.002;2023-04-09T03:13:40;99525.28;;;3.88;100.00
34921;BME280;21128;50.016;20.002;2023-04-09T03:16:07;99528.72;;;3.88;100.00
34921;BME280;21128;50.016;20.002;2023-04-09T03:18:36;99528.63;;;3.90;100.00
34921;BME280;21128;50.016;20.002;2023-04-09T03:21:06;99523.43;;;3.90;100.00
34921;BME280;21128;50.016;20.002;2023-04-09T03:23:34;99525.94;;;3.91;100.00
34921;BME280;21128;50.016;20.002;2023-04-09T03:26:03;99524.09;;;3.93;100.00
34921;BME280;21128;50.016;20.002;2023-04-09T03:28:30;99522.17;;;3.97;100.00
34921;BME280;21128;50.016;20.002;2023-04-09T03:30:57;99517.72;;;3.99;100.00
34921;BME280;21128;50.016;20.002;2023-04-09T03:33:24;99523.94;;;3.97;100.00
34921;BME280;21128;50.016;20.002;2023-04-09T03:35:51;99524.92;;;3.94;100.00
34921;BME280;21128;50.016;20.002;2023-04-09T03:38:18;99517.48;;;3.88;100.00
34921;BME280;21128;50.016;20.002;2023-04-09T03:40:45;99521.16;;;3.84;100.00
34921;BME280;21128;50.016;20.002;2023-04-09T03:43:12;99516.13;;;3.81;100.00
34921;BME280;21128;50.016;20.002;2023-04-09T03:45:39;99515.38;;;3.79;100.00
34921;BME280;21128;50.016;20.002;2023-04-09T03:48:06;99524.91;;;3.78;100.00
34921;BME280;21128;50.016;20.002;2023-04-09T03:50:40;99521.47;;;3.78;100.00
34921;BME280;21128;50.016;20.002;2023-04-09T03:53:07;99525.78;;;3.79;100.00
34921;BME280;21128;50.016;20.002;2023-04-09T03:55:34;99517.05;;;3.80;100.00
34921;BME280;21128;50.016;20.002;2023-04-09T03:58:01;99521.23;;;3.82;100.00
34921;BME280;21128;50.016;20.002;2023-04-09T04:00:28;99527.27;;;3.83;100.00
34921;BME280;21128;50.016;20.002;2023-04-09T04:02:55;99522.83;;;3.85;100.00
34921;BME280;21128;50.016;20.002;2023-04-09T04:05:23;99525.60;;;3.82;100.00
34921;BME280;21128;50.016;20.002;2023-04-09T04:07:52;99530.05;;;3.80;100.00
34921;BME280;21128;50.016;20.002;2023-04-09T04:10:19;99532.56;;;3.81;100.00
34921;BME280;21128;50.016;20.002;2023-04-09T04:12:46;99531.64;;;3.82;100.00
34921;BME280;21128;50.016;20.002;2023-04-09T04:15:13;99535.91;;;3.83;100.00
34921;BME280;21128;50.016;20.002;2023-04-09T04:17:40;99536.75;;;3.84;100.00
34921;BME280;21128;50.016;20.002;2023-04-09T04:20:08;99531.55;;;3.84;100.00
34921;BME280;21128;50.016;20.002;2023-04-09T04:22:35;99529.88;;;3.83;100.00
34921;BME280;21128;50.016;20.002;2023-04-09T04:25:03;99531.55;;;3.84;100.00
34921;BME280;21128;50.016;20.002;2023-04-09T04:27:30;99529.64;;;3.87;100.00
34921;BME280;21128;50.016;20.002;2023-04-09T04:29:57;99532.99;;;3.89;100.00
34921;BME280;21128;50.016;20.002;2023-04-09T04:32:25;99531.98;;;3.92;100.00
34921;BME280;21128;50.016;20.002;2023-04-09T04:34:53;99546.56;;;3.94;100.00
34921;BME280;21128;50.016;20.002;2023-04-09T04:37:20;99535.17;;;3.97;100.00
34921;BME280;21128;50.016;20.002;2023-04-09T04:39:47;99540.95;;;4.02;100.00
34921;BME280;21128;50.016;20.002;2023-04-09T04:42:14;99529.62;;;4.03;100.00
34921;BME280;21128;50.016;20.002;2023-04-09T04:44:43;99546.93;;;4.04;100.00
34921;BME280;21128;50.016;20.002;2023-04-09T04:47:10;99537.42;;;4.03;100.00
34921;BME280;21128;50.016;20.002;2023-04-09T04:49:37;99547.91;;;4.02;100.00
34921;BME280;21128;50.016;20.002;2023-04-09T04:52:05;99547.91;;;4.02;100.00
34921;BME280;21128;50.016;20.002;2023-04-09T04:54:32;99551.34;;;4.02;100.00
34921;BME280;21128;50.016;20.002;2023-04-09T04:57:00;99549.53;;;4.04;100.00
34921;BME280;21128;50.016;20.002;2023-04-09T04:59:27;99554.55;;;4.07;100.00
34921;BME280;21128;50.016;20.002;2023-04-09T05:01:54;99549.17;;;4.10;100.00
34921;BME280;21128;50.016;20.002;2023-04-09T05:04:21;99550.84;;;4.11;100.00
34921;BME280;21128;50.016;20.002;2023-04-09T05:06:48;99549.95;;;4.12;100.00
34921;BME280;21128;50.016;20.002;2023-04-09T05:09:15;99552.37;;;4.15;100.00
34921;BME280;21128;50.016;20.002;2023-04-09T05:11:42;99552.97;;;4.20;100.00
34921;BME280;21128;50.016;20.002;2023-04-09T05:14:09;99552.79;;;4.23;100.00
34921;BME280;21128;50.016;20.002;2023-04-09T05:16:36;99550.94;;;4.26;100.00
34921;BME280;21128;50.016;20.002;2023-04-09T05:19:03;99554.38;;;4.26;100.00
34921;BME280;21128;50.016;20.002;2023-04-09T05:21:30;99550.94;;;4.26;100.00
34921;BME280;21128;50.016;20.002;2023-04-09T05:23:57;99556.88;;;4.28;100.00
34921;BME280;21128;50.016;20.002;2023-04-09T05:26:24;99552.61;;;4.27;100.00
34921;BME280;21128;50.016;20.002;2023-04-09T05:28:52;99551.77;;;4.26;100.00
34921;BME280;21128;50.016;20.002;2023-04-09T05:31:19;99550.84;;;4.27;100.00
34921;BME280;21128;50.016;20.002;2023-04-09T05:33:46;99556.88;;;4.28;100.00
34921;BME280;21128;50.016;20.002;2023-04-09T05:36:15;99561.16;;;4.29;100.00
34921;BME280;21128;50.016;20.002;2023-04-09T05:38:44;99562.09;;;4.28;100.00
34921;BME280;21128;50.016;20.002;2023-04-09T05:41:12;99564.63;;;4.29;100.00
34921;BME280;21128;50.016;20.002;2023-04-09T05:43:39;99566.36;;;4.29;100.00
34921;BME280;21128;50.016;20.002;2023-04-09T05:46:08;99565.38;;;4.31;100.00
34921;BME280;21128;50.016;20.002;2023-04-09T05:48:35;99572.91;;;4.36;100.00
34921;BME280;21128;50.016;20.002;2023-04-09T05:51:02;99570.91;;;4.41;100.00
34921;BME280;21128;50.016;20.002;2023-04-09T05:53:30;99571.65;;;4.43;100.00
34921;BME280;21128;50.016;20.002;2023-04-09T05:55:58;99574.01;;;4.47;100.00
34921;BME280;21128;50.016;20.002;2023-04-09T05:58:27;99569.31;;;4.54;100.00
34921;BME280;21128;50.016;20.002;2023-04-09T06:00:54;99569.87;;;4.59;100.00
34921;BME280;21128;50.016;20.002;2023-04-09T06:03:21;99576.50;;;4.65;100.00
34921;BME280;21128;50.016;20.002;2023-04-09T06:05:48;99571.02;;;4.69;100.00
34921;BME280;21128;50.016;20.002;2023-04-09T06:08:15;99576.53;;;4.79;100.00
34921;BME280;21128;50.016;20.002;2023-04-09T06:10:42;99574.33;;;4.87;100.00
34921;BME280;21128;50.016;20.002;2023-04-09T06:13:09;99581.70;;;4.95;100.00
34921;BME280;21128;50.016;20.002;2023-04-09T06:15:37;99591.69;;;5.02;100.00
34921;BME280;21128;50.016;20.002;2023-04-09T06:18:04;99586.22;;;5.07;100.00
34921;BME280;21128;50.016;20.002;2023-04-09T06:20:32;99577.19;;;5.13;100.00
34921;BME280;21128;50.016;20.002;2023-04-09T06:22:58;99578.12;;;5.12;100.00
34921;BME280;21128;50.016;20.002;2023-04-09T06:25:26;99576.84;;;5.19;100.00
34921;BME280;21128;50.016;20.002;2023-04-09T06:27:53;99581.80;;;5.23;100.00
34921;BME280;21128;50.016;20.002;2023-04-09T06:30:19;99590.09;;;5.30;100.00
34921;BME280;21128;50.016;20.002;2023-04-09T06:32:47;99591.38;;;5.37;100.00
34921;BME280;21128;50.016;20.002;2023-04-09T06:35:14;99590.94;;;5.45;100.00
34921;BME280;21128;50.016;20.002;2023-04-09T06:37:41;99590.37;;;5.54;100.00
34921;BME280;21128;50.016;20.002;2023-04-09T06:40:09;99589.66;;;5.66;100.00
34921;BME280;21128;50.016;20.002;2023-04-09T06:42:36;99591.97;;;5.71;100.00
34921;BME280;21128;50.016;20.002;2023-04-09T06:45:04;99595.78;;;5.79;100.00
34921;BME280;21128;50.016;20.002;2023-04-09T06:47:34;99594.59;;;5.85;100.00
34921;BME280;21128;50.016;20.002;2023-04-09T06:50:02;99593.88;;;5.97;100.00
34921;BME280;21128;50.016;20.002;2023-04-09T06:52:31;99602.51;;;6.12;100.00
34921;BME280;21128;50.016;20.002;2023-04-09T06:54:58;99604.06;;;6.29;100.00
34921;BME280;21128;50.016;20.002;2023-04-09T06:57:25;99595.58;;;6.39;100.00
34921;BME280;21128;50.016;20.002;2023-04-09T06:59:52;99596.66;;;6.49;100.00
34921;BME280;21128;50.016;20.002;2023-04-09T07:02:19;99603.59;;;6.63;100.00
34921;BME280;21128;50.016;20.002;2023-04-09T07:04:46;99609.44;;;6.81;100.00
34921;BME280;21128;50.016;20.002;2023-04-09T07:07:13;99608.78;;;6.77;100.00
34921;BME280;21128;50.016;20.002;2023-04-09T07:09:41;99610.77;;;6.74;100.00
34921;BME280;21128;50.016;20.002;2023-04-09T07:12:08;99606.90;;;6.80;100.00
34921;BME280;21128;50.016;20.002;2023-04-09T07:14:35;99606.84;;;6.94;100.00
34921;BME280;21128;50.016;20.002;2023-04-09T07:17:02;99602.73;;;7.17;100.00
34921;BME280;21128;50.016;20.002;2023-04-09T07:19:29;99605.16;;;7.45;100.00
34921;BME280;21128;50.016;20.002;2023-04-09T07:21:56;99602.55;;;7.71;100.00
34921;BME280;21128;50.016;20.002;2023-04-09T07:24:23;99604.02;;;7.75;100.00
34921;BME280;21128;50.016;20.002;2023-04-09T07:26:50;99607.59;;;7.74;100.00
34921;BME280;21128;50.016;20.002;2023-04-09T07:29:17;99613.22;;;7.93;100.00
34921;BME280;21128;50.016;20.002;2023-04-09T07:31:46;99604.80;;;8.13;100.00
34921;BME280;21128;50.016;20.002;2023-04-09T07:34:13;99602.05;;;8.28;100.00
34921;BME280;21128;50.016;20.002;2023-04-09T07:36:40;99602.66;;;8.44;100.00
34921;BME280;21128;50.016;20.002;2023-04-09T07:39:08;99602.23;;;8.50;100.00
34921;BME280;21128;50.016;20.002;2023-04-09T07:41:35;99607.23;;;8.53;100.00
34921;BME280;21128;50.016;20.002;2023-04-09T07:44:03;99606.80;;;8.59;100.00
34921;BME280;21128;50.016;20.002;2023-04-09T07:46:31;99601.56;;;8.59;100.00
34921;BME280;21128;50.016;20.002;2023-04-09T07:48:58;99604.55;;;8.66;100.00
34921;BME280;21128;50.016;20.002;2023-04-09T07:51:26;99606.14;;;8.68;100.00
34921;BME280;21128;50.016;20.002;2023-04-09T07:53:53;99606.34;;;8.89;100.00
34921;BME280;21128;50.016;20.002;2023-04-09T07:56:20;99603.81;;;9.12;100.00
34921;BME280;21128;50.016;20.002;2023-04-09T07:58:47;99606.41;;;9.47;100.00
34921;BME280;21128;50.016;20.002;2023-04-09T08:01:15;99605.62;;;9.80;100.00
34921;BME280;21128;50.016;20.002;2023-04-09T08:03:42;99601.19;;;10.14;100.00
34921;BME280;21128;50.016;20.002;2023-04-09T08:06:09;99597.14;;;10.43;100.00
34921;BME280;21128;50.016;20.002;2023-04-09T08:08:36;99596.27;;;10.54;100.00
34921;BME280;21128;50.016;20.002;2023-04-09T08:11:03;99596.84;;;10.69;100.00
34921;BME280;21128;50.016;20.002;2023-04-09T08:13:30;99602.05;;;10.80;100.00
34921;BME280;21128;50.016;20.002;2023-04-09T08:16:00;99602.96;;;10.90;100.00
34921;BME280;21128;50.016;20.002;2023-04-09T08:18:28;99608.34;;;10.89;100.00
34921;BME280;21128;50.016;20.002;2023-04-09T08:20:55;99607.25;;;10.91;100.00
34921;BME280;21128;50.016;20.002;2023-04-09T08:23:23;99608.27;;;11.11;100.00
34921;BME280;21128;50.016;20.002;2023-04-09T08:25:49;99606.09;;;11.37;100.00
34921;BME280;21128;50.016;20.002;2023-04-09T08:28:16;99607.69;;;11.70;100.00
34921;BME280;21128;50.016;20.002;2023-04-09T08:30:44;99601.36;;;12.03;100.00
34921;BME280;21128;50.016;20.002;2023-04-09T08:33:11;99608.07;;;12.27;100.00
34921;BME280;21128;50.016;20.002;2023-04-09T08:35:37;99602.80;;;12.27;100.00
34921;BME280;21128;50.016;20.002;2023-04-09T08:38:06;99599.39;;;12.36;100.00
34921;BME280;21128;50.016;20.002;2023-04-09T08:40:34;99603.59;;;12.67;100.00
34921;BME280;21128;50.016;20.002;2023-04-09T08:43:04;99600.84;;;12.98;100.00
34921;BME280;21128;50.016;20.002;2023-04-09T08:45:32;99597.22;;;13.18;100.00
34921;BME280;21128;50.016;20.002;2023-04-09T08:48:01;99595.56;;;13.46;100.00
34921;BME280;21128;50.016;20.002;2023-04-09T08:50:30;99596.31;;;13.76;100.00
34921;BME280;21128;50.016;20.002;2023-04-09T08:53:01;99602.91;;;13.99;100.00
34921;BME280;21128;50.016;20.002;2023-04-09T08:55:29;99605.61;;;14.17;100.00
34921;BME280;21128;50.016;20.002;2023-04-09T08:57:57;99603.06;;;14.25;100.00
34921;BME280;21128;50.016;20.002;2023-04-09T09:00:24;99597.78;;;14.25;100.00
34921;BME280;21128;50.016;20.002;2023-04-09T09:03:05;99606.11;;;14.30;100.00
34921;BME280;21128;50.016;20.002;2023-04-09T09:05:41;99599.53;;;14.34;99.16
34921;BME280;21128;50.016;20.002;2023-04-09T09:08:21;99604.03;;;13.97;96.91
34921;BME280;21128;50.016;20.002;2023-04-09T09:10:48;99601.23;;;13.51;96.19
34921;BME280;21128;50.016;20.002;2023-04-09T09:13:21;99597.97;;;13.20;96.65
34921;BME280;21128;50.016;20.002;2023-04-09T09:15:49;99605.84;;;12.91;96.04
34921;BME280;21128;50.016;20.002;2023-04-09T09:18:41;99605.00;;;12.72;96.51
34921;BME280;21128;50.016;20.002;2023-04-09T09:21:13;99605.51;;;12.46;96.29
34921;BME280;21128;50.016;20.002;2023-04-09T09:23:41;99602.11;;;12.25;95.85
34921;BME280;21128;50.016;20.002;2023-04-09T09:26:28;99599.97;;;12.09;95.90
34921;BME280;21128;50.016;20.002;2023-04-09T09:28:56;99605.06;;;12.01;96.37
34921;BME280;21128;50.016;20.002;2023-04-09T09:31:26;99611.06;;;12.03;96.56
34921;BME280;21128;50.016;20.002;2023-04-09T09:33:54;99602.67;;;11.88;95.55
34921;BME280;21128;50.016;20.002;2023-04-09T09:36:32;99606.66;;;11.82;95.09
34921;BME280;21128;50.016;20.002;2023-04-09T09:39:00;99603.43;;;11.79;95.42
34921;BME280;21128;50.016;20.002;2023-04-09T09:41:35;99606.45;;;11.95;95.64
34921;BME280;21128;50.016;20.002;2023-04-09T09:44:03;99618.45;;;12.19;96.89
34921;BME280;21128;50.016;20.002;2023-04-09T09:46:37;99605.90;;;12.42;96.11
34921;BME280;21128;50.016;20.002;2023-04-09T09:49:05;99604.94;;;12.52;96.43
34921;BME280;21128;50.016;20.002;2023-04-09T09:51:35;99604.56;;;12.66;95.38
34921;BME280;21128;50.016;20.002;2023-04-09T09:54:02;99597.52;;;12.86;96.21
34921;BME280;21128;50.016;20.002;2023-04-09T09:56:33;99590.56;;;13.14;96.08
34921;BME280;21128;50.016;20.002;2023-04-09T09:59:16;99590.84;;;13.40;95.75
34921;BME280;21128;50.016;20.002;2023-04-09T10:01:47;99594.27;;;13.60;94.67
34921;BME280;21128;50.016;20.002;2023-04-09T10:04:17;99590.64;;;13.71;94.34
34921;BME280;21128;50.016;20.002;2023-04-09T10:06:45;99588.08;;;13.89;94.01
34921;BME280;21128;50.016;20.002;2023-04-09T10:09:14;99586.95;;;14.19;94.28
34921;BME280;21128;50.016;20.002;2023-04-09T10:11:41;99585.42;;;14.44;93.64
34921;BME280;21128;50.016;20.002;2023-04-09T10:14:13;99585.85;;;14.49;92.44
34921;BME280;21128;50.016;20.002;2023-04-09T10:16:42;99580.14;;;14.44;91.93
34921;BME280;21128;50.016;20.002;2023-04-09T10:19:09;99592.73;;;14.32;90.77
34921;BME280;21128;50.016;20.002;2023-04-09T10:22:04;99585.81;;;13.94;88.50
34921;BME280;21128;50.016;20.002;2023-04-09T10:24:33;99584.56;;;13.51;89.10
34921;BME280;21128;50.016;20.002;2023-04-09T10:27:11;99577.66;;;12.92;87.92
34921;BME280;21128;50.016;20.002;2023-04-09T10:29:48;99580.22;;;12.34;87.36
34921;BME280;21128;50.016;20.002;2023-04-09T10:32:19;99582.30;;;11.90;89.05
34921;BME280;21128;50.016;20.002;2023-04-09T10:34:48;99584.69;;;11.72;90.27
34921;BME280;21128;50.016;20.002;2023-04-09T10:37:21;99580.34;;;11.62;91.00
34921;BME280;21128;50.016;20.002;2023-04-09T10:39:49;99577.81;;;11.60;91.76
34921;BME280;21128;50.016;20.002;2023-04-09T10:42:22;99571.61;;;11.61;92.41
34921;BME280;21128;50.016;20.002;2023-04-09T10:45:09;99574.95;;;11.63;92.40
34921;BME280;21128;50.016;20.002;2023-04-09T10:47:39;99576.80;;;11.51;92.18
34921;BME280;21128;50.016;20.002;2023-04-09T10:52:52;99575.73;;;11.54;92.80
34921;BME280;21128;50.016;20.002;2023-04-09T10:57:58;99575.13;;;11.50;92.99
34921;BME280;21128;50.016;20.002;2023-04-09T11:00:25;99580.94;;;11.44;92.74
34921;BME280;21128;50.016;20.002;2023-04-09T11:05:34;99574.06;;;11.53;93.53
34921;BME280;21128;50.016;20.002;2023-04-09T11:08:11;99573.66;;;11.58;93.50
34921;BME280;21128;50.016;20.002;2023-04-09T11:10:43;99574.11;;;11.63;93.62
34921;BME280;21128;50.016;20.002;2023-04-09T11:13:11;99572.63;;;11.70;94.27
34921;BME280;21128;50.016;20.002;2023-04-09T11:15:39;99580.56;;;11.79;94.17
34921;BME280;21128;50.016;20.002;2023-04-09T11:18:07;99574.81;;;11.86;93.63
34921;BME280;21128;50.016;20.002;2023-04-09T11:20:38;99573.95;;;11.85;92.40
34921;BME280;21128;50.016;20.002;2023-04-09T11:23:06;99571.38;;;11.95;93.62
34921;BME280;21128;50.016;20.002;2023-04-09T11:25:33;99570.72;;;12.02;93.15
34921;BME280;21128;50.016;20.002;2023-04-09T11:28:02;99571.83;;;12.09;92.82
34921;BME280;21128;50.016;20.002;2023-04-09T11:30:30;99573.80;;;12.17;93.03
34921;BME280;21128;50.016;20.002;2023-04-09T11:32:57;99576.73;;;12.24;92.35
34921;BME280;21128;50.016;20.002;2023-04-09T11:35:24;99569.94;;;12.21;91.39
34921;BME280;21128;50.016;20.002;2023-04-09T11:37:51;99563.55;;;12.24;91.41
34921;BME280;21128;50.016;20.002;2023-04-09T11:40:25;99563.55;;;12.24;91.84
34921;BME280;21128;50.016;20.002;2023-04-09T11:42:55;99569.95;;;12.31;91.53
34921;BME280;21128;50.016;20.002;2023-04-09T11:45:28;99570.09;;;12.29;90.41
34921;BME280;21128;50.016;20.002;2023-04-09T11:47:56;99573.13;;;12.25;90.52
34921;BME280;21128;50.016;20.002;2023-04-09T11:50:23;99573.80;;;12.17;90.35
34921;BME280;21128;50.016;20.002;2023-04-09T11:52:50;99575.45;;;12.18;91.07
34921;BME280;21128;50.016;20.002;2023-04-09T11:55:28;99570.77;;;12.22;89.90
34921;BME280;21128;50.016;20.002;2023-04-09T11:57:59;99565.48;;;12.12;89.40
34921;BME280;21128;50.016;20.002;2023-04-09T12:00:27;99567.11;;;12.03;88.90
34921;BME280;21128;50.016;20.002;2023-04-09T12:03:00;99576.82;;;12.03;89.67
34921;BME280;21128;50.016;20.002;2023-04-09T12:05:32;99577.09;;;12.09;89.93
34921;BME280;21128;50.016;20.002;2023-04-09T12:08:06;99579.34;;;12.14;89.78
34921;BME280;21128;50.016;20.002;2023-04-09T12:10:36;99571.30;;;12.16;89.35
34921;BME280;21128;50.016;20.002;2023-04-09T12:13:07;99573.48;;;12.10;89.52
34921;BME280;21128;50.016;20.002;2023-04-09T12:15:37;99582.95;;;12.13;90.61
34921;BME280;21128;50.016;20.002;2023-04-09T12:18:07;99573.66;;;12.19;90.44
34921;BME280;21128;50.016;20.002;2023-04-09T12:20:42;99581.45;;;12.20;89.62
34921;BME280;21128;50.016;20.002;2023-04-09T12:23:11;99583.94;;;12.22;90.03
34921;BME280;21128;50.016;20.002;2023-04-09T12:25:40;99582.53;;;12.18;89.12
34921;BME280;21128;50.016;20.002;2023-04-09T12:28:09;99575.73;;;12.15;89.82
34921;BME280;21128;50.016;20.002;2023-04-09T12:30:36;99567.69;;;12.17;89.61
34921;BME280;21128;50.016;20.002;2023-04-09T12:33:04;99577.40;;;12.16;89.49
34921;BME280;21128;50.016;20.002;2023-04-09T12:35:31;99569.11;;;12.21;89.38
34921;BME280;21128;50.016;20.002;2023-04-09T12:37:58;99564.97;;;12.28;89.66
34921;BME280;21128;50.016;20.002;2023-04-09T12:40:26;99574.09;;;12.24;89.63
34921;BME280;21128;50.016;20.002;2023-04-09T12:42:53;99566.31;;;12.13;89.20
34921;BME280;21128;50.016;20.002;2023-04-09T12:45:20;99567.95;;;12.04;88.69
34921;BME280;21128;50.016;20.002;2023-04-09T12:47:47;99571.66;;;12.01;89.19
34921;BME280;21128;50.016;20.002;2023-04-09T12:50:14;99565.31;;;12.04;88.90
34921;BME280;21128;50.016;20.002;2023-04-09T12:52:42;99570.30;;;12.07;89.06
34921;BME280;21128;50.016;20.002;2023-04-09T12:55:10;99574.73;;;12.06;89.00
34921;BME280;21128;50.016;20.002;2023-04-09T12:57:41;99567.22;;;12.02;89.60
34921;BME280;21128;50.016;20.002;2023-04-09T13:00:09;99566.84;;;12.06;89.18
34921;BME280;21128;50.016;20.002;2023-04-09T13:02:36;99565.48;;;12.12;89.77
34921;BME280;21128;50.016;20.002;2023-04-09T13:05:03;99568.83;;;12.24;90.04
34921;BME280;21128;50.016;20.002;2023-04-09T13:07:30;99562.60;;;12.34;89.35
34921;BME280;21128;50.016;20.002;2023-04-09T13:09:57;99558.31;;;12.43;89.49
34921;BME280;21128;50.016;20.002;2023-04-09T13:12:26;99562.08;;;12.50;88.98
34921;BME280;21128;50.016;20.002;2023-04-09T13:14:53;99556.66;;;12.52;89.02
34921;BME280;21128;50.016;20.002;2023-04-09T13:17:21;99564.46;;;12.53;88.86